sensor_id;sensor_type;location;lat;lon;timestamp;P1;durP1;ratioP1;P2;durP2;ratioP2
16820;SDS011;8527;49.740;6.604;2023-10-31T00:02:26;2.90;;;1.88;;
16820;SDS011;8527;49.740;6.604;2023-10-31T00:07:25;4.95;;;2.20;;
16820;SDS011;8527;49.740;6.604;2023-10-31T00:12:27;3.15;;;2.25;;
16820;SDS011;8527;49.740;6.604;2023-10-31T00:17:28;2.40;;;1.75;;
16820;SDS011;8527;49.740;6.604;2023-10-31T00:22:26;7.47;;;2.22;;
16820;SDS011;8527;49.740;6.604;2023-10-31T00:27:27;4.15;;;2.10;;
16820;SDS011;8527;49.740;6.604;2023-10-31T00:32:25;3.83;;;2.00;;
16820;SDS011;8527;49.740;6.604;2023-10-31T00:37:27;3.85;;;1.80;;
16820;SDS011;8527;49.740;6.604;2023-10-31T00:42:28;4.45;;;1.90;;
16820;SDS011;8527;49.740;6.604;2023-10-31T00:47:27;5.47;;;1.90;;
16820;SDS011;8527;49.740;6.604;2023-10-31T00:52:27;4.68;;;1.90;;
16820;SDS011;8527;49.740;6.604;2023-10-31T00:57:29;3.30;;;1.67;;
16820;SDS011;8527;49.740;6.604;2023-10-31T01:02:33;4.95;;;2.00;;
16820;SDS011;8527;49.740;6.604;2023-10-31T01:07:32;3.35;;;1.58;;
16820;SDS011;8527;49.740;6.604;2023-10-31T01:12:34;2.80;;;1.88;;
16820;SDS011;8527;49.740;6.604;2023-10-31T01:17:35;4.80;;;1.80;;
16820;SDS011;8527;49.740;6.604;2023-10-31T01:22:37;3.88;;;1.80;;
16820;SDS011;8527;49.740;6.604;2023-10-31T01:27:38;5.88;;;1.85;;
16820;SDS011;8527;49.740;6.604;2023-10-31T01:32:38;7.00;;;2.00;;
16820;SDS011;8527;49.740;6.604;2023-10-31T01:37:38;3.60;;;2.22;;
16820;SDS011;8527;49.740;6.604;2023-10-31T01:42:40;3.08;;;1.67;;
16820;SDS011;8527;49.740;6.604;2023-10-31T01:47:42;5.30;;;1.75;;
16820;SDS011;8527;49.740;6.604;2023-10-31T01:52:43;2.40;;;1.92;;
16820;SDS011;8527;49.740;6.604;2023-10-31T01:57:48;5.72;;;2.42;;
16820;SDS011;8527;49.740;6.604;2023-10-31T02:02:47;4.57;;;1.95;;
16820;SDS011;8527;49.740;6.604;2023-10-31T02:07:46;3.35;;;2.10;;
16820;SDS011;8527;49.740;6.604;2023-10-31T02:12:48;2.60;;;1.80;;
16820;SDS011;8527;49.740;6.604;2023-10-31T02:17:56;3.13;;;1.75;;
16820;SDS011;8527;49.740;6.604;2023-10-31T02:22:57;5.85;;;2.17;;
16820;SDS011;8527;49.740;6.604;2023-10-31T02:27:59;3.80;;;2.30;;
16820;SDS011;8527;49.740;6.604;2023-10-31T02:32:58;5.30;;;2.50;;
16820;SDS011;8527;49.740;6.604;2023-10-31T02:37:59;3.03;;;2.40;;
16820;SDS011;8527;49.740;6.604;2023-10-31T02:43:01;5.45;;;2.45;;
16820;SDS011;8527;49.740;6.604;2023-10-31T02:48:00;4.80;;;2.08;;
16820;SDS011;8527;49.740;6.604;2023-10-31T02:53:03;4.65;;;2.33;;
16820;SDS011;8527;49.740;6.604;2023-10-31T02:58:07;4.38;;;2.40;;
16820;SDS011;8527;49.740;6.604;2023-10-31T03:03:18;9.18;;;2.00;;
16820;SDS011;8527;49.740;6.604;2023-10-31T03:08:28;5.00;;;2.10;;
16820;SDS011;8527;49.740;6.604;2023-10-31T03:13:36;3.85;;;2.28;;
16820;SDS011;8527;49.740;6.604;2023-10-31T03:18:37;4.85;;;2.13;;
16820;SDS011;8527;49.740;6.604;2023-10-31T03:23:38;6.53;;;2.20;;
16820;SDS011;8527;49.740;6.604;2023-10-31T03:28:37;6.47;;;2.70;;
16820;SDS011;8527;49.740;6.604;2023-10-31T03:33:37;11.40;;;2.90;;
16820;SDS011;8527;49.740;6.604;2023-10-31T03:38:44;8.38;;;2.40;;
16820;SDS011;8527;49.740;6.604;2023-10-31T03:43:43;3.97;;;2.25;;
16820;SDS011;8527;49.740;6.604;2023-10-31T03:48:52;6.13;;;2.83;;
16820;SDS011;8527;49.740;6.604;2023-10-31T03:53:55;7.88;;;2.50;;
16820;SDS011;8527;49.740;6.604;2023-10-31T03:58:53;6.10;;;2.50;;
16820;SDS011;8527;49.740;6.604;2023-10-31T04:03:52;5.57;;;2.60;;
16820;SDS011;8527;49.740;6.604;2023-10-31T04:08:50;5.07;;;2.03;;
16820;SDS011;8527;49.740;6.604;2023-10-31T04:13:51;3.72;;;2.38;;
16820;SDS011;8527;49.740;6.604;2023-10-31T04:18:51;6.32;;;2.33;;
16820;SDS011;8527;49.740;6.604;2023-10-31T04:23:59;4.10;;;2.35;;
16820;SDS011;8527;49.740;6.604;2023-10-31T04:29:03;7.47;;;2.30;;
16820;SDS011;8527;49.740;6.604;2023-10-31T04:34:04;9.98;;;3.40;;
16820;SDS011;8527;49.740;6.604;2023-10-31T04:39:03;3.20;;;2.00;;
16820;SDS011;8527;49.740;6.604;2023-10-31T04:44:07;5.57;;;2.25;;
16820;SDS011;8527;49.740;6.604;2023-10-31T04:49:15;5.07;;;2.33;;
16820;SDS011;8527;49.740;6.604;2023-10-31T04:54:13;5.97;;;2.30;;
16820;SDS011;8527;49.740;6.604;2023-10-31T04:59:14;7.60;;;3.03;;
16820;SDS011;8527;49.740;6.604;2023-10-31T05:04:16;9.05;;;3.20;;
16820;SDS011;8527;49.740;6.604;2023-10-31T05:09:15;7.35;;;3.25;;
16820;SDS011;8527;49.740;6.604;2023-10-31T05:14:21;6.57;;;3.28;;
16820;SDS011;8527;49.740;6.604;2023-10-31T05:19:19;7.07;;;2.38;;
16820;SDS011;8527;49.740;6.604;2023-10-31T05:24:18;10.73;;;2.97;;
16820;SDS011;8527;49.740;6.604;2023-10-31T05:29:17;5.80;;;2.50;;
16820;SDS011;8527;49.740;6.604;2023-10-31T05:34:26;8.35;;;2.30;;
16820;SDS011;8527;49.740;6.604;2023-10-31T05:39:27;6.15;;;2.80;;
16820;SDS011;8527;49.740;6.604;2023-10-31T05:44:28;10.18;;;2.70;;
16820;SDS011;8527;49.740;6.604;2023-10-31T05:49:27;4.78;;;2.15;;
16820;SDS011;8527;49.740;6.604;2023-10-31T05:54:25;5.55;;;2.58;;
16820;SDS011;8527;49.740;6.604;2023-10-31T05:59:24;10.15;;;3.13;;
16820;SDS011;8527;49.740;6.604;2023-10-31T06:04:25;8.45;;;2.60;;
16820;SDS011;8527;49.740;6.604;2023-10-31T06:09:23;6.30;;;3.05;;
16820;SDS011;8527;49.740;6.604;2023-10-31T06:14:24;6.10;;;2.40;;
16820;SDS011;8527;49.740;6.604;2023-10-31T06:19:26;4.50;;;2.63;;
16820;SDS011;8527;49.740;6.604;2023-10-31T06:24:24;6.60;;;2.30;;
16820;SDS011;8527;49.740;6.604;2023-10-31T06:29:22;5.13;;;2.58;;
16820;SDS011;8527;49.740;6.604;2023-10-31T06:34:26;6.18;;;3.28;;
16820;SDS011;8527;49.740;6.604;2023-10-31T06:39:28;5.32;;;2.80;;
16820;SDS011;8527;49.740;6.604;2023-10-31T06:44:26;6.63;;;2.90;;
16820;SDS011;8527;49.740;6.604;2023-10-31T06:49:27;5.20;;;2.35;;
16820;SDS011;8527;49.740;6.604;2023-10-31T06:54:28;4.82;;;2.28;;
16820;SDS011;8527;49.740;6.604;2023-10-31T06:59:26;5.53;;;2.60;;
16820;SDS011;8527;49.740;6.604;2023-10-31T07:04:28;3.42;;;2.58;;
16820;SDS011;8527;49.740;6.604;2023-10-31T07:09:30;5.85;;;2.00;;
16820;SDS011;8527;49.740;6.604;2023-10-31T07:14:31;5.60;;;2.58;;
16820;SDS011;8527;49.740;6.604;2023-10-31T07:19:31;6.22;;;2.25;;
16820;SDS011;8527;49.740;6.604;2023-10-31T07:24:30;6.38;;;2.85;;
16820;SDS011;8527;49.740;6.604;2023-10-31T07:29:29;3.25;;;2.38;;
16820;SDS011;8527;49.740;6.604;2023-10-31T07:34:33;5.93;;;3.33;;
16820;SDS011;8527;49.740;6.604;2023-10-31T07:39:34;6.88;;;3.17;;
16820;SDS011;8527;49.740;6.604;2023-10-31T07:44:32;7.47;;;2.45;;
16820;SDS011;8527;49.740;6.604;2023-10-31T07:49:33;5.18;;;2.17;;
16820;SDS011;8527;49.740;6.604;2023-10-31T07:54:32;6.35;;;2.40;;
16820;SDS011;8527;49.740;6.604;2023-10-31T07:59:33;9.02;;;3.30;;
16820;SDS011;8527;49.740;6.604;2023-10-31T08:04:34;7.47;;;2.60;;
16820;SDS011;8527;49.740;6.604;2023-10-31T08:09:32;4.53;;;2.13;;
16820;SDS011;8527;49.740;6.604;2023-10-31T08:14:30;8.20;;;2.17;;
16820;SDS011;8527;49.740;6.604;2023-10-31T08:19:31;9.30;;;2.72;;
16820;SDS011;8527;49.740;6.604;2023-10-31T08:24:33;6.30;;;2.40;;
16820;SDS011;8527;49.740;6.604;2023-10-31T08:29:32;14.40;;;2.58;;
16820;SDS011;8527;49.740;6.604;2023-10-31T08:34:36;5.10;;;2.22;;
16820;SDS011;8527;49.740;6.604;2023-10-31T08:39:35;6.07;;;2.28;;
16820;SDS011;8527;49.740;6.604;2023-10-31T08:44:36;7.13;;;2.60;;
16820;SDS011;8527;49.740;6.604;2023-10-31T08:49:40;9.95;;;2.63;;
16820;SDS011;8527;49.740;6.604;2023-10-31T08:54:38;9.32;;;2.25;;
16820;SDS011;8527;49.740;6.604;2023-10-31T08:59:36;6.85;;;2.10;;
16820;SDS011;8527;49.740;6.604;2023-10-31T09:04:35;7.22;;;2.70;;
16820;SDS011;8527;49.740;6.604;2023-10-31T09:09:37;10.35;;;2.50;;
16820;SDS011;8527;49.740;6.604;2023-10-31T09:14:35;9.10;;;2.50;;
16820;SDS011;8527;49.740;6.604;2023-10-31T09:19:33;5.85;;;2.25;;
16820;SDS011;8527;49.740;6.604;2023-10-31T09:24:37;15.73;;;2.58;;
16820;SDS011;8527;49.740;6.604;2023-10-31T09:29:38;7.85;;;2.97;;
16820;SDS011;8527;49.740;6.604;2023-10-31T09:34:36;11.25;;;2.10;;
16820;SDS011;8527;49.740;6.604;2023-10-31T09:39:37;8.98;;;2.55;;
16820;SDS011;8527;49.740;6.604;2023-10-31T09:44:36;11.88;;;2.22;;
16820;SDS011;8527;49.740;6.604;2023-10-31T09:49:40;8.68;;;2.10;;
16820;SDS011;8527;49.740;6.604;2023-10-31T09:54:41;11.10;;;2.40;;
16820;SDS011;8527;49.740;6.604;2023-10-31T09:59:43;8.13;;;2.17;;
16820;SDS011;8527;49.740;6.604;2023-10-31T10:04:41;14.68;;;3.55;;
16820;SDS011;8527;49.740;6.604;2023-10-31T10:09:42;7.15;;;2.15;;
16820;SDS011;8527;49.740;6.604;2023-10-31T10:14:44;9.70;;;2.45;;
16820;SDS011;8527;49.740;6.604;2023-10-31T10:19:43;6.60;;;1.85;;
16820;SDS011;8527;49.740;6.604;2023-10-31T10:24:44;6.32;;;1.80;;
16820;SDS011;8527;49.740;6.604;2023-10-31T10:29:43;7.10;;;1.50;;
16820;SDS011;8527;49.740;6.604;2023-10-31T10:34:42;5.35;;;1.27;;
16820;SDS011;8527;49.740;6.604;2023-10-31T10:39:46;5.55;;;1.52;;
16820;SDS011;8527;49.740;6.604;2023-10-31T10:44:47;1.98;;;0.98;;
16820;SDS011;8527;49.740;6.604;2023-10-31T10:49:47;3.50;;;1.02;;
16820;SDS011;8527;49.740;6.604;2023-10-31T10:54:57;3.60;;;1.48;;
16820;SDS011;8527;49.740;6.604;2023-10-31T11:00:03;2.45;;;1.08;;
16820;SDS011;8527;49.740;6.604;2023-10-31T11:05:07;1.85;;;1.05;;
16820;SDS011;8527;49.740;6.604;2023-10-31T11:10:09;3.47;;;1.38;;
16820;SDS011;8527;49.740;6.604;2023-10-31T11:15:08;4.43;;;1.75;;
16820;SDS011;8527;49.740;6.604;2023-10-31T11:20:10;5.53;;;1.40;;
16820;SDS011;8527;49.740;6.604;2023-10-31T11:25:13;2.85;;;1.20;;
16820;SDS011;8527;49.740;6.604;2023-10-31T11:30:27;3.70;;;1.38;;
16820;SDS011;8527;49.740;6.604;2023-10-31T11:35:28;3.22;;;1.27;;
16820;SDS011;8527;49.740;6.604;2023-10-31T11:40:30;1.83;;;0.90;;
16820;SDS011;8527;49.740;6.604;2023-10-31T11:45:32;3.47;;;1.52;;
16820;SDS011;8527;49.740;6.604;2023-10-31T11:50:33;3.70;;;2.47;;
16820;SDS011;8527;49.740;6.604;2023-10-31T11:55:39;4.13;;;1.30;;
16820;SDS011;8527;49.740;6.604;2023-10-31T12:05:37;6.30;;;2.03;;
16820;SDS011;8527;49.740;6.604;2023-10-31T12:10:39;7.75;;;1.52;;
16820;SDS011;8527;49.740;6.604;2023-10-31T12:15:50;2.30;;;1.25;;
16820;SDS011;8527;49.740;6.604;2023-10-31T12:20:49;2.88;;;1.05;;
16820;SDS011;8527;49.740;6.604;2023-10-31T12:25:51;5.20;;;1.30;;
16820;SDS011;8527;49.740;6.604;2023-10-31T12:30:54;3.63;;;1.23;;
16820;SDS011;8527;49.740;6.604;2023-10-31T12:35:56;2.65;;;1.10;;
16820;SDS011;8527;49.740;6.604;2023-10-31T12:40:58;5.50;;;1.80;;
16820;SDS011;8527;49.740;6.604;2023-10-31T12:45:57;7.18;;;1.77;;
16820;SDS011;8527;49.740;6.604;2023-10-31T12:51:08;3.35;;;1.73;;
16820;SDS011;8527;49.740;6.604;2023-10-31T12:56:09;3.80;;;1.40;;
16820;SDS011;8527;49.740;6.604;2023-10-31T13:01:10;4.43;;;1.63;;
16820;SDS011;8527;49.740;6.604;2023-10-31T13:06:13;5.60;;;1.92;;
16820;SDS011;8527;49.740;6.604;2023-10-31T13:11:16;4.05;;;1.60;;
16820;SDS011;8527;49.740;6.604;2023-10-31T13:16:20;2.20;;;1.40;;
16820;SDS011;8527;49.740;6.604;2023-10-31T13:21:19;3.03;;;1.65;;
16820;SDS011;8527;49.740;6.604;2023-10-31T13:26:20;5.75;;;2.30;;
16820;SDS011;8527;49.740;6.604;2023-10-31T13:31:21;5.95;;;1.85;;
16820;SDS011;8527;49.740;6.604;2023-10-31T13:36:22;2.92;;;1.58;;
16820;SDS011;8527;49.740;6.604;2023-10-31T13:41:27;5.10;;;1.58;;
16820;SDS011;8527;49.740;6.604;2023-10-31T13:46:28;8.60;;;2.90;;
16820;SDS011;8527;49.740;6.604;2023-10-31T13:51:29;5.88;;;2.65;;
16820;SDS011;8527;49.740;6.604;2023-10-31T13:56:30;4.88;;;2.03;;
16820;SDS011;8527;49.740;6.604;2023-10-31T14:01:28;7.43;;;2.22;;
16820;SDS011;8527;49.740;6.604;2023-10-31T14:06:33;3.22;;;1.83;;
16820;SDS011;8527;49.740;6.604;2023-10-31T14:11:34;8.82;;;2.33;;
16820;SDS011;8527;49.740;6.604;2023-10-31T14:16:33;10.45;;;1.80;;
16820;SDS011;8527;49.740;6.604;2023-10-31T14:21:32;5.20;;;1.83;;
16820;SDS011;8527;49.740;6.604;2023-10-31T14:26:31;3.45;;;1.95;;
16820;SDS011;8527;49.740;6.604;2023-10-31T14:31:37;6.97;;;1.85;;
16820;SDS011;8527;49.740;6.604;2023-10-31T14:36:37;6.65;;;2.60;;
16820;SDS011;8527;49.740;6.604;2023-10-31T14:41:38;8.07;;;3.30;;
16820;SDS011;8527;49.740;6.604;2023-10-31T14:46:36;5.95;;;3.08;;
16820;SDS011;8527;49.740;6.604;2023-10-31T14:51:37;12.32;;;3.88;;
16820;SDS011;8527;49.740;6.604;2023-10-31T14:56:39;4.22;;;1.73;;
16820;SDS011;8527;49.740;6.604;2023-10-31T15:01:38;2.78;;;1.00;;
16820;SDS011;8527;49.740;6.604;2023-10-31T15:06:36;6.00;;;1.83;;
16820;SDS011;8527;49.740;6.604;2023-10-31T15:11:35;6.60;;;2.05;;
16820;SDS011;8527;49.740;6.604;2023-10-31T15:16:36;3.38;;;1.58;;
16820;SDS011;8527;49.740;6.604;2023-10-31T15:21:43;3.50;;;1.60;;
16820;SDS011;8527;49.740;6.604;2023-10-31T15:26:42;1.95;;;1.30;;
16820;SDS011;8527;49.740;6.604;2023-10-31T15:31:45;9.02;;;2.08;;
16820;SDS011;8527;49.740;6.604;2023-10-31T15:36:49;9.95;;;3.65;;
16820;SDS011;8527;49.740;6.604;2023-10-31T15:41:52;7.50;;;2.90;;
16820;SDS011;8527;49.740;6.604;2023-10-31T15:46:53;7.30;;;2.15;;
16820;SDS011;8527;49.740;6.604;2023-10-31T15:51:51;11.23;;;2.72;;
16820;SDS011;8527;49.740;6.604;2023-10-31T15:56:50;4.05;;;2.13;;
16820;SDS011;8527;49.740;6.604;2023-10-31T16:01:48;7.38;;;2.33;;
16820;SDS011;8527;49.740;6.604;2023-10-31T16:06:51;5.68;;;2.30;;
16820;SDS011;8527;49.740;6.604;2023-10-31T16:11:52;13.55;;;3.83;;
16820;SDS011;8527;49.740;6.604;2023-10-31T16:16:51;13.77;;;6.07;;
16820;SDS011;8527;49.740;6.604;2023-10-31T16:21:52;9.77;;;3.80;;
16820;SDS011;8527;49.740;6.604;2023-10-31T16:26:50;8.05;;;3.30;;
16820;SDS011;8527;49.740;6.604;2023-10-31T16:31:49;6.65;;;3.05;;
16820;SDS011;8527;49.740;6.604;2023-10-31T16:36:55;10.25;;;3.42;;
16820;SDS011;8527;49.740;6.604;2023-10-31T16:41:54;8.77;;;2.88;;
16820;SDS011;8527;49.740;6.604;2023-10-31T16:46:55;9.88;;;4.53;;
16820;SDS011;8527;49.740;6.604;2023-10-31T16:51:56;11.85;;;3.80;;
16820;SDS011;8527;49.740;6.604;2023-10-31T16:56:55;10.77;;;3.22;;
16820;SDS011;8527;49.740;6.604;2023-10-31T17:01:56;7.90;;;3.50;;
16820;SDS011;8527;49.740;6.604;2023-10-31T17:06:57;9.77;;;3.58;;
16820;SDS011;8527;49.740;6.604;2023-10-31T17:11:56;6.88;;;3.10;;
16820;SDS011;8527;49.740;6.604;2023-10-31T17:16:54;10.40;;;3.20;;
16820;SDS011;8527;49.740;6.604;2023-10-31T17:21:52;16.88;;;4.78;;
16820;SDS011;8527;49.740;6.604;2023-10-31T17:26:57;7.55;;;3.30;;
16820;SDS011;8527;49.740;6.604;2023-10-31T17:31:55;13.95;;;3.20;;
16820;SDS011;8527;49.740;6.604;2023-10-31T17:36:54;12.10;;;3.90;;
16820;SDS011;8527;49.740;6.604;2023-10-31T17:41:53;12.95;;;3.35;;
16820;SDS011;8527;49.740;6.604;2023-10-31T17:46:54;6.60;;;3.10;;
16820;SDS011;8527;49.740;6.604;2023-10-31T17:51:53;11.27;;;3.90;;
16820;SDS011;8527;49.740;6.604;2023-10-31T17:56:53;12.63;;;3.33;;
16820;SDS011;8527;49.740;6.604;2023-10-31T18:01:54;7.38;;;2.80;;
16820;SDS011;8527;49.740;6.604;2023-10-31T18:06:54;10.18;;;3.53;;
16820;SDS011;8527;49.740;6.604;2023-10-31T18:11:53;8.80;;;4.07;;
16820;SDS011;8527;49.740;6.604;2023-10-31T18:16:55;14.10;;;4.53;;
16820;SDS011;8527;49.740;6.604;2023-10-31T18:21:54;10.05;;;3.63;;
16820;SDS011;8527;49.740;6.604;2023-10-31T18:26:55;9.30;;;3.50;;
16820;SDS011;8527;49.740;6.604;2023-10-31T18:31:56;12.65;;;4.85;;
16820;SDS011;8527;49.740;6.604;2023-10-31T18:36:54;13.18;;;4.63;;
16820;SDS011;8527;49.740;6.604;2023-10-31T18:41:53;10.93;;;4.25;;
16820;SDS011;8527;49.740;6.604;2023-10-31T18:46:51;13.55;;;3.65;;
16820;SDS011;8527;49.740;6.604;2023-10-31T18:51:52;11.05;;;5.20;;
16820;SDS011;8527;49.740;6.604;2023-10-31T18:56:51;9.65;;;3.90;;
16820;SDS011;8527;49.740;6.604;2023-10-31T19:01:52;10.32;;;3.50;;
16820;SDS011;8527;49.740;6.604;2023-10-31T19:06:56;12.63;;;6.00;;
16820;SDS011;8527;49.740;6.604;2023-10-31T19:11:54;11.40;;;4.07;;
16820;SDS011;8527;49.740;6.604;2023-10-31T19:16:52;11.80;;;5.28;;
16820;SDS011;8527;49.740;6.604;2023-10-31T19:21:51;12.48;;;3.15;;
16820;SDS011;8527;49.740;6.604;2023-10-31T19:26:52;12.63;;;3.47;;
16820;SDS011;8527;49.740;6.604;2023-10-31T19:31:50;12.68;;;3.53;;
16820;SDS011;8527;49.740;6.604;2023-10-31T19:36:48;8.98;;;3.70;;
16820;SDS011;8527;49.740;6.604;2023-10-31T19:41:53;14.52;;;4.40;;
16820;SDS011;8527;49.740;6.604;2023-10-31T19:46:52;12.82;;;4.32;;
16820;SDS011;8527;49.740;6.604;2023-10-31T19:51:50;12.50;;;4.80;;
16820;SDS011;8527;49.740;6.604;2023-10-31T19:56:54;14.95;;;4.05;;
16820;SDS011;8527;49.740;6.604;2023-10-31T20:01:58;10.52;;;3.80;;
16820;SDS011;8527;49.740;6.604;2023-10-31T20:06:56;9.13;;;3.22;;
16820;SDS011;8527;49.740;6.604;2023-10-31T20:11:58;10.52;;;6.32;;
16820;SDS011;8527;49.740;6.604;2023-10-31T20:16:58;16.77;;;5.05;;
16820;SDS011;8527;49.740;6.604;2023-10-31T20:21:56;13.52;;;3.40;;
16820;SDS011;8527;49.740;6.604;2023-10-31T20:27:05;10.60;;;3.85;;
16820;SDS011;8527;49.740;6.604;2023-10-31T20:32:03;12.43;;;3.25;;
16820;SDS011;8527;49.740;6.604;2023-10-31T20:37:02;11.23;;;3.08;;
16820;SDS011;8527;49.740;6.604;2023-10-31T20:42:01;7.72;;;3.50;;
16820;SDS011;8527;49.740;6.604;2023-10-31T20:47:02;12.75;;;3.20;;
16820;SDS011;8527;49.740;6.604;2023-10-31T20:52:03;9.85;;;3.03;;
16820;SDS011;8527;49.740;6.604;2023-10-31T20:57:02;8.32;;;2.85;;
16820;SDS011;8527;49.740;6.604;2023-10-31T21:02:03;14.60;;;3.75;;
16820;SDS011;8527;49.740;6.604;2023-10-31T21:07:03;11.15;;;2.95;;
16820;SDS011;8527;49.740;6.604;2023-10-31T21:12:03;7.70;;;3.08;;
16820;SDS011;8527;49.740;6.604;2023-10-31T21:17:08;5.55;;;2.85;;
16820;SDS011;8527;49.740;6.604;2023-10-31T21:22:07;9.88;;;2.55;;
16820;SDS011;8527;49.740;6.604;2023-10-31T21:27:05;10.07;;;3.08;;
16820;SDS011;8527;49.740;6.604;2023-10-31T21:32:09;15.93;;;2.80;;
16820;SDS011;8527;49.740;6.604;2023-10-31T21:37:07;9.15;;;3.00;;
16820;SDS011;8527;49.740;6.604;2023-10-31T21:42:05;17.10;;;3.33;;
16820;SDS011;8527;49.740;6.604;2023-10-31T21:47:04;15.55;;;2.90;;
16820;SDS011;8527;49.740;6.604;2023-10-31T21:52:08;10.40;;;2.83;;
16820;SDS011;8527;49.740;6.604;2023-10-31T21:57:06;8.30;;;2.60;;
16820;SDS011;8527;49.740;6.604;2023-10-31T22:02:05;12.23;;;3.00;;
16820;SDS011;8527;49.740;6.604;2023-10-31T22:07:03;14.13;;;3.17;;
16820;SDS011;8527;49.740;6.604;2023-10-31T22:12:10;12.05;;;2.85;;
16820;SDS011;8527;49.740;6.604;2023-10-31T22:17:11;11.73;;;2.95;;
16820;SDS011;8527;49.740;6.604;2023-10-31T22:22:12;12.35;;;2.83;;
16820;SDS011;8527;49.740;6.604;2023-10-31T22:27:13;12.98;;;2.95;;
16820;SDS011;8527;49.740;6.604;2023-10-31T22:32:11;14.35;;;2.90;;
16820;SDS011;8527;49.740;6.604;2023-10-31T22:37:09;12.60;;;2.70;;
16820;SDS011;8527;49.740;6.604;2023-10-31T22:42:12;8.43;;;2.20;;
16820;SDS011;8527;49.740;6.604;2023-10-31T22:47:10;12.65;;;2.72;;
16820;SDS011;8527;49.740;6.604;2023-10-31T22:52:08;10.93;;;2.60;;
16820;SDS011;8527;49.740;6.604;2023-10-31T22:57:09;6.88;;;2.92;;
16820;SDS011;8527;49.740;6.604;2023-10-31T23:02:07;8.98;;;2.38;;
16820;SDS011;8527;49.740;6.604;2023-10-31T23:07:06;5.72;;;2.10;;
16820;SDS011;8527;49.740;6.604;2023-10-31T23:12:05;7.53;;;2.15;;
16820;SDS011;8527;49.740;6.604;2023-10-31T23:17:10;13.68;;;3.15;;
16820;SDS011;8527;49.740;6.604;2023-10-31T23:22:08;12.45;;;2.60;;
16820;SDS011;8527;49.740;6.604;2023-10-31T23:27:06;9.32;;;3.08;;
16820;SDS011;8527;49.740;6.604;2023-10-31T23:32:05;13.50;;;3.33;;
16820;SDS011;8527;49.740;6.604;2023-10-31T23:37:06;11.05;;;3.38;;
16820;SDS011;8527;49.740;6.604;2023-10-31T23:42:05;7.95;;;2.90;;
16820;SDS011;8527;49.740;6.604;2023-10-31T23:47:04;12.77;;;3.42;;
16820;SDS011;8527;49.740;6.604;2023-10-31T23:52:08;10.15;;;3.28;;
16820;SDS011;8527;49.740;6.604;2023-10-31T23:57:07;13.05;;;3.20;;
